Time;durP1;ratioP1;P1;durP2;ratioP2;P2;SDS_P1;SDS_P2;PMS_P1;PMS_P2;Temp;Humidity;BMP_temperature;BMP_pressure;BME280_temperature;BME280_humidity;BME280_pressure;Samples;Min_cycle;Max_cycle;Signal;HPM_P1;HPM_P2
2021/10/18 00:01:28;;;;;;;8.43;5.57;;;10.00;99.90;;;;;;5011774;28;20272;-70
2021/10/18 00:03:54;;;;;;;9.67;5.83;;;10.10;99.90;;;;;;5012089;28;20205;-69
2021/10/18 00:06:21;;;;;;;7.73;5.23;;;10.10;99.90;;;;;;5011914;28;20253;-69
2021/10/18 00:08:47;;;;;;;7.23;5.70;;;10.10;99.90;;;;;;5011357;28;20205;-70
2021/10/18 00:11:14;;;;;;;10.33;5.77;;;10.00;99.90;;;;;;5010629;28;20288;-70
2021/10/18 00:13:41;;;;;;;7.07;5.63;;;10.10;99.90;;;;;;5010710;28;20205;-70
2021/10/18 00:16:07;;;;;;;6.17;5.57;;;10.10;99.90;;;;;;5011843;28;20218;-70
2021/10/18 00:18:35;;;;;;;8.73;5.60;;;10.10;99.90;;;;;;5011819;28;20252;-70
2021/10/18 00:21:02;;;;;;;11.27;7.90;;;10.10;99.90;;;;;;5011874;28;20205;-70
2021/10/18 00:23:29;;;;;;;17.40;11.77;;;10.10;99.90;;;;;;5011920;28;20222;-70
2021/10/18 00:25:55;;;;;;;6.83;6.13;;;10.20;99.90;;;;;;5011664;28;20248;-70
2021/10/18 00:28:22;;;;;;;7.07;5.33;;;10.20;99.90;;;;;;5011730;28;20233;-70
2021/10/18 00:30:49;;;;;;;9.37;5.63;;;10.20;99.90;;;;;;5011719;28;20209;-70
2021/10/18 00:33:15;;;;;;;7.10;5.37;;;10.20;99.90;;;;;;5011499;28;20213;-70
2021/10/18 00:35:43;;;;;;;9.47;6.03;;;10.20;99.90;;;;;;5011506;28;20656;-71
2021/10/18 00:38:10;;;;;;;11.00;5.60;;;10.10;99.90;;;;;;5011472;28;20217;-71
2021/10/18 00:40:36;;;;;;;11.83;5.87;;;10.10;99.90;;;;;;5011281;28;20799;-71
2021/10/18 00:43:03;;;;;;;6.63;5.10;;;10.10;99.90;;;;;;5011412;28;20225;-71
2021/10/18 00:45:30;;;;;;;7.70;5.47;;;10.20;99.90;;;;;;5011163;28;20220;-68
2021/10/18 00:47:58;;;;;;;5.67;5.07;;;10.20;99.90;;;;;;5011021;28;20237;-69
2021/10/18 00:50:24;;;;;;;9.07;5.60;;;10.20;99.90;;;;;;5011519;28;20280;-69
2021/10/18 00:52:52;;;;;;;8.93;5.57;;;10.30;99.90;;;;;;5011204;28;20209;-69
2021/10/18 00:55:19;;;;;;;6.13;5.17;;;10.30;99.90;;;;;;5011386;28;20210;-68
2021/10/18 00:57:47;;;;;;;9.03;5.43;;;10.30;99.90;;;;;;5011086;28;20259;-68
2021/10/18 01:00:14;;;;;;;9.27;5.57;;;10.20;99.90;;;;;;5010837;28;20273;-69
2021/10/18 01:02:41;;;;;;;8.90;5.73;;;10.20;99.90;;;;;;5010967;28;20229;-68
2021/10/18 01:05:09;;;;;;;6.87;5.60;;;10.30;99.90;;;;;;5010944;28;20265;-69
2021/10/18 01:07:35;;;;;;;6.73;5.57;;;10.20;99.90;;;;;;5010836;28;20327;-69
2021/10/18 01:10:04;;;;;;;8.50;5.40;;;10.10;99.90;;;;;;5010988;28;20209;-68
2021/10/18 01:12:31;;;;;;;5.67;5.13;;;10.20;99.90;;;;;;5010944;28;20252;-69
2021/10/18 01:14:58;;;;;;;7.30;5.30;;;10.10;99.90;;;;;;5010141;28;20209;-70
2021/10/18 01:17:24;;;;;;;6.73;5.53;;;10.10;99.90;;;;;;5010475;28;20688;-69
2021/10/18 01:19:51;;;;;;;10.33;5.57;;;10.00;99.90;;;;;;5010347;28;20688;-70
2021/10/18 01:22:19;;;;;;;6.13;5.60;;;10.10;99.90;;;;;;5010290;28;20583;-70
2021/10/18 01:24:46;;;;;;;8.23;5.70;;;10.00;99.90;;;;;;5010357;28;20287;-70
2021/10/18 01:27:16;;;;;;;6.50;5.60;;;10.10;99.90;;;;;;5010872;28;20237;-70
2021/10/18 01:29:43;;;;;;;9.13;5.20;;;10.10;99.90;;;;;;5010482;28;20198;-70
2021/10/18 01:32:10;;;;;;;6.33;5.20;;;10.20;99.90;;;;;;5010033;28;20245;-70
2021/10/18 01:34:36;;;;;;;5.73;5.27;;;10.20;99.90;;;;;;5010455;28;20209;-70
2021/10/18 01:37:05;;;;;;;6.40;5.03;;;10.10;99.90;;;;;;5010389;28;20237;-70
2021/10/18 01:39:33;;;;;;;7.23;5.10;;;10.20;99.90;;;;;;5010005;28;20797;-70
2021/10/18 01:42:00;;;;;;;7.93;5.57;;;10.10;99.90;;;;;;5010356;28;20201;-70
2021/10/18 01:44:27;;;;;;;7.63;4.83;;;10.10;99.90;;;;;;5010318;28;20252;-70
2021/10/18 01:46:54;;;;;;;6.47;5.00;;;10.10;99.90;;;;;;5009790;28;20269;-70
2021/10/18 01:49:20;;;;;;;6.23;5.40;;;10.20;99.90;;;;;;5010355;28;20213;-70
2021/10/18 01:51:47;;;;;;;6.37;5.00;;;10.20;99.90;;;;;;5010018;28;20206;-70
2021/10/18 01:54:13;;;;;;;7.17;5.20;;;10.30;99.90;;;;;;5009655;28;20664;-70
2021/10/18 01:56:42;;;;;;;7.73;5.57;;;10.30;99.90;;;;;;5009899;28;20209;-70
2021/10/18 01:59:09;;;;;;;5.80;5.03;;;10.30;99.90;;;;;;5009798;28;20557;-70
2021/10/18 02:01:36;;;;;;;6.67;5.50;;;10.30;99.90;;;;;;5009600;28;20586;-70
2021/10/18 02:04:02;;;;;;;6.03;5.53;;;10.30;99.90;;;;;;5009697;28;20257;-70
2021/10/18 02:06:29;;;;;;;6.30;5.00;;;10.20;99.90;;;;;;5009373;28;20210;-70
2021/10/18 02:08:55;;;;;;;7.47;5.33;;;10.10;99.90;;;;;;5009591;28;20242;-70
2021/10/18 02:11:22;;;;;;;7.57;4.90;;;10.00;99.90;;;;;;5009971;28;20217;-70
2021/10/18 02:13:50;;;;;;;6.43;4.90;;;10.00;99.90;;;;;;5009494;28;20209;-70
2021/10/18 02:16:17;;;;;;;5.67;5.07;;;10.00;99.90;;;;;;5009372;28;20275;-70
2021/10/18 02:18:43;;;;;;;8.07;5.23;;;10.10;99.90;;;;;;5009516;28;20264;-71
2021/10/18 02:21:10;;;;;;;6.30;4.80;;;10.10;99.90;;;;;;5009466;28;20291;-70
2021/10/18 02:23:37;;;;;;;5.90;4.80;;;10.10;99.90;;;;;;5009248;28;20233;-71
2021/10/18 02:26:04;;;;;;;7.90;4.80;;;10.10;99.90;;;;;;5009228;28;20604;-71
2021/10/18 02:28:30;;;;;;;6.63;5.00;;;10.10;99.90;;;;;;5011785;28;20237;-70
2021/10/18 02:30:58;;;;;;;5.83;4.87;;;10.00;99.90;;;;;;5020619;28;20201;-70
2021/10/18 02:33:25;;;;;;;7.40;4.70;;;10.10;99.90;;;;;;5020327;28;20217;-70
2021/10/18 02:35:52;;;;;;;4.93;4.03;;;10.10;99.90;;;;;;5029068;28;20282;-70
2021/10/18 02:38:18;;;;;;;6.07;4.63;;;10.10;99.90;;;;;;5024016;28;20232;-70
2021/10/18 02:40:45;;;;;;;6.50;4.27;;;10.00;99.90;;;;;;5024805;28;20267;-70
2021/10/18 02:43:11;;;;;;;5.10;4.10;;;10.00;99.90;;;;;;5025263;28;20263;-69
2021/10/18 02:45:38;;;;;;;6.07;4.03;;;10.00;99.90;;;;;;5025280;28;20237;-70
2021/10/18 02:48:06;;;;;;;5.43;3.87;;;10.00;99.90;;;;;;5025073;28;20326;-70
2021/10/18 02:50:33;;;;;;;5.90;3.90;;;9.90;99.90;;;;;;5025093;28;20209;-69
2021/10/18 02:52:59;;;;;;;4.40;4.00;;;10.00;99.90;;;;;;5025171;28;20639;-70
2021/10/18 02:55:26;;;;;;;8.63;4.93;;;10.10;99.90;;;;;;5024960;28;20240;-70
2021/10/18 02:57:53;;;;;;;5.23;4.40;;;10.10;99.90;;;;;;5025040;28;20252;-70
2021/10/18 03:00:20;;;;;;;5.53;4.37;;;10.20;99.90;;;;;;5024478;28;20605;-70
2021/10/18 03:02:46;;;;;;;5.53;4.37;;;10.20;99.90;;;;;;5024466;28;20440;-70
2021/10/18 03:05:14;;;;;;;5.63;4.40;;;10.20;99.90;;;;;;5024612;28;20229;-70
2021/10/18 03:07:41;;;;;;;5.97;4.60;;;10.30;99.90;;;;;;5024530;28;20276;-70
2021/10/18 03:10:09;;;;;;;9.63;5.90;;;10.30;99.90;;;;;;5012636;28;20677;-70
2021/10/18 03:12:35;;;;;;;7.47;4.80;;;10.30;99.90;;;;;;5019201;28;20208;-70
2021/10/18 03:15:03;;;;;;;6.00;4.80;;;10.30;99.90;;;;;;5026605;28;20217;-70
2021/10/18 03:17:30;;;;;;;8.07;4.37;;;10.30;99.90;;;;;;5027206;28;20244;-70
2021/10/18 03:19:57;;;;;;;7.03;4.70;;;10.20;99.90;;;;;;5027988;28;20624;-70
2021/10/18 03:22:25;;;;;;;6.07;5.33;;;10.20;99.90;;;;;;5028168;28;20644;-70
2021/10/18 03:24:51;;;;;;;7.73;5.73;;;10.30;99.90;;;;;;5028039;28;20212;-70
2021/10/18 03:27:18;;;;;;;5.63;4.23;;;10.30;99.90;;;;;;5028281;28;20278;-70
2021/10/18 03:29:45;;;;;;;4.30;4.00;;;10.30;99.90;;;;;;5028064;28;20255;-70
2021/10/18 03:32:11;;;;;;;6.33;3.70;;;10.30;99.90;;;;;;5028158;28;20274;-70
2021/10/18 03:34:38;;;;;;;6.13;4.23;;;10.30;99.90;;;;;;5028000;28;20200;-70
2021/10/18 03:37:05;;;;;;;5.33;4.17;;;10.40;99.90;;;;;;5028181;28;21081;-70
2021/10/18 03:39:33;;;;;;;4.73;3.80;;;10.40;99.90;;;;;;5028118;28;20228;-70
2021/10/18 03:42:00;;;;;;;5.60;3.70;;;10.40;99.90;;;;;;5027987;28;20633;-70
2021/10/18 03:44:26;;;;;;;8.17;4.33;;;10.40;99.90;;;;;;5028278;28;20302;-70
2021/10/18 03:46:53;;;;;;;6.13;4.37;;;10.30;99.90;;;;;;5027875;28;20265;-70
2021/10/18 03:49:20;;;;;;;6.10;4.37;;;10.30;99.90;;;;;;5027931;28;20255;-70
2021/10/18 03:51:46;;;;;;;3.97;3.57;;;10.40;99.90;;;;;;5027829;28;20220;-70
2021/10/18 03:54:13;;;;;;;6.07;4.10;;;10.30;99.90;;;;;;5027918;28;20212;-70
2021/10/18 03:56:41;;;;;;;5.67;3.83;;;10.30;99.90;;;;;;5027905;28;20212;-70
2021/10/18 03:59:08;;;;;;;5.23;4.23;;;10.30;99.90;;;;;;5027714;28;20275;-70
2021/10/18 04:01:35;;;;;;;4.33;3.70;;;10.30;99.90;;;;;;5027451;28;20236;-70
2021/10/18 04:04:01;;;;;;;8.20;4.97;;;10.30;99.90;;;;;;5027781;28;20224;-70
2021/10/18 04:06:28;;;;;;;4.07;3.67;;;10.30;99.90;;;;;;5027875;28;20351;-70
2021/10/18 04:08:55;;;;;;;4.97;4.27;;;10.30;99.90;;;;;;5027620;28;20270;-70
2021/10/18 04:11:21;;;;;;;5.13;4.27;;;10.30;99.90;;;;;;5027364;28;20643;-70
2021/10/18 04:13:49;;;;;;;4.03;3.60;;;10.30;99.90;;;;;;5027317;28;20671;-70
2021/10/18 04:16:16;;;;;;;4.37;3.63;;;10.30;99.90;;;;;;5027555;28;20664;-70
2021/10/18 04:18:43;;;;;;;6.03;4.20;;;10.30;99.90;;;;;;5027665;28;20221;-70
2021/10/18 04:21:10;;;;;;;6.07;3.67;;;10.30;99.90;;;;;;5027661;28;20209;-70
2021/10/18 04:23:39;;;;;;;6.80;3.70;;;10.30;99.90;;;;;;5027259;28;20711;-70
2021/10/18 04:26:06;;;;;;;5.70;3.47;;;10.30;99.90;;;;;;5027484;28;20619;-70
2021/10/18 04:28:33;;;;;;;4.07;3.60;;;;;;;;;;5028577;28;20322;-70
2021/10/18 04:31:01;;;;;;;4.50;3.17;;;10.30;99.90;;;;;;5031224;28;20423;-70
2021/10/18 04:33:27;;;;;;;3.47;3.23;;;10.30;99.90;;;;;;5031568;28;20246;-70
2021/10/18 04:35:54;;;;;;;5.77;3.40;;;10.30;99.90;;;;;;5031143;28;20213;-70
2021/10/18 04:38:21;;;;;;;3.80;3.30;;;10.30;99.90;;;;;;5030949;28;20299;-70
2021/10/18 04:40:47;;;;;;;5.83;2.90;;;10.30;99.90;;;;;;5030565;28;20655;-70
2021/10/18 04:43:14;;;;;;;4.30;3.07;;;10.20;99.90;;;;;;5031139;28;20282;-70
2021/10/18 04:45:41;;;;;;;3.20;2.90;;;10.30;99.90;;;;;;5031035;28;20212;-70
2021/10/18 04:48:09;;;;;;;4.10;2.90;;;10.30;99.90;;;;;;5031095;28;20229;-70
2021/10/18 04:50:35;;;;;;;3.80;2.90;;;10.20;99.90;;;;;;5030908;28;20262;-70
2021/10/18 04:53:02;;;;;;;3.63;3.00;;;10.20;99.90;;;;;;5030978;28;20236;-70
2021/10/18 04:55:29;;;;;;;3.20;2.70;;;10.30;99.90;;;;;;5031166;28;20208;-70
2021/10/18 04:57:57;;;;;;;4.03;3.13;;;10.30;99.90;;;;;;5030838;28;20596;-70
2021/10/18 05:00:25;;;;;;;4.13;3.73;;;10.30;99.90;;;;;;5030484;28;20702;-70
2021/10/18 05:02:52;;;;;;;4.00;3.60;;;10.30;99.90;;;;;;5030364;28;20205;-70
2021/10/18 05:05:21;;;;;;;3.83;3.17;;;10.30;99.90;;;;;;5030901;28;20212;-70
2021/10/18 05:07:59;;;;;;;5.00;3.67;;;10.30;99.90;;;;;;5030354;28;20571;-70
2021/10/18 05:10:26;;;;;;;4.10;3.53;;;10.30;99.90;;;;;;5010455;28;20205;-70
2021/10/18 05:12:53;;;;;;;4.83;3.43;;;10.30;99.90;;;;;;5010440;28;20690;-70
2021/10/18 05:15:20;;;;;;;4.73;2.47;;;10.30;99.90;;;;;;5010810;28;20210;-70
2021/10/18 05:17:47;;;;;;;3.10;2.80;;;10.20;99.90;;;;;;5010674;28;20209;-70
2021/10/18 05:20:13;;;;;;;3.60;3.30;;;10.20;99.90;;;;;;5010764;28;20622;-70
2021/10/18 05:22:41;;;;;;;3.30;2.70;;;10.20;99.90;;;;;;5010384;28;20762;-70
2021/10/18 05:25:09;;;;;;;4.23;2.80;;;10.20;99.90;;;;;;5010259;28;20205;-70
2021/10/18 05:27:35;;;;;;;5.10;3.10;;;10.10;99.90;;;;;;5010335;28;20292;-70
2021/10/18 05:30:02;;;;;;;4.13;2.80;;;10.20;99.90;;;;;;5010532;28;20264;-70
2021/10/18 05:32:29;;;;;;;4.20;3.07;;;10.20;99.90;;;;;;5010401;28;20229;-70
2021/10/18 05:34:56;;;;;;;4.50;2.80;;;10.20;99.90;;;;;;5010232;28;20213;-70
2021/10/18 05:37:22;;;;;;;3.50;2.63;;;10.10;99.90;;;;;;5010374;28;20622;-70
2021/10/18 05:39:50;;;;;;;3.67;2.80;;;10.10;99.90;;;;;;5009381;28;20261;-69
2021/10/18 05:42:17;;;;;;;3.23;2.83;;;10.10;99.90;;;;;;5009996;28;20692;-70
2021/10/18 05:44:47;;;;;;;3.03;2.80;;;10.10;99.90;;;;;;5010120;28;20245;-70
2021/10/18 05:47:13;;;;;;;3.40;3.10;;;10.10;99.90;;;;;;5010241;28;20209;-70
2021/10/18 05:49:40;;;;;;;3.03;2.83;;;10.20;99.90;;;;;;5009980;28;20246;-70
2021/10/18 05:52:07;;;;;;;3.93;3.53;;;10.10;99.90;;;;;;5010084;28;20205;-70
2021/10/18 05:54:33;;;;;;;3.37;3.00;;;10.10;99.90;;;;;;5009947;28;20218;-70
2021/10/18 05:57:01;;;;;;;3.10;2.67;;;10.10;99.90;;;;;;5009762;28;20303;-70
2021/10/18 05:59:28;;;;;;;3.57;2.80;;;10.10;99.90;;;;;;5009482;28;20742;-70
2021/10/18 06:01:54;;;;;;;3.47;2.80;;;10.10;99.90;;;;;;5009744;28;20295;-70
2021/10/18 06:04:21;;;;;;;3.83;2.93;;;10.10;99.90;;;;;;5009405;28;20265;-70
2021/10/18 06:06:48;;;;;;;5.13;3.07;;;10.20;99.90;;;;;;5009256;28;20582;-70
2021/10/18 06:09:15;;;;;;;3.10;2.80;;;10.10;99.90;;;;;;5009716;28;20272;-70
2021/10/18 06:11:41;;;;;;;3.30;3.10;;;10.10;99.90;;;;;;5009377;28;20308;-70
2021/10/18 06:14:09;;;;;;;3.37;3.07;;;10.20;99.90;;;;;;5009483;28;20688;-70
2021/10/18 06:16:36;;;;;;;2.57;2.37;;;10.10;99.90;;;;;;5009624;28;20206;-70
2021/10/18 06:19:03;;;;;;;2.70;2.50;;;10.10;99.90;;;;;;5009370;28;21027;-70
2021/10/18 06:21:29;;;;;;;2.60;2.40;;;10.00;99.90;;;;;;5009626;28;20244;-70
2021/10/18 06:23:56;;;;;;;2.37;2.27;;;10.00;99.90;;;;;;5009189;28;20699;-70
2021/10/18 06:26:23;;;;;;;2.87;2.63;;;10.00;99.90;;;;;;5009681;28;20397;-70
2021/10/18 06:28:49;;;;;;;3.63;2.50;;;10.00;99.90;;;;;;5009269;28;20244;-70
2021/10/18 06:31:17;;;;;;;2.73;2.53;;;10.00;99.90;;;;;;5009210;28;20260;-70
2021/10/18 06:33:44;;;;;;;4.40;2.43;;;10.00;99.90;;;;;;5009134;28;20241;-70
2021/10/18 06:36:12;;;;;;;4.07;2.53;;;10.20;99.90;;;;;;5009378;28;20209;-70
2021/10/18 06:38:38;;;;;;;4.33;2.60;;;10.10;99.90;;;;;;5009080;28;20299;-70
2021/10/18 06:41:05;;;;;;;2.80;2.50;;;10.10;99.90;;;;;;5009252;28;20256;-70
2021/10/18 06:43:31;;;;;;;3.90;3.53;;;10.20;99.90;;;;;;5009306;28;20201;-70
2021/10/18 06:45:59;;;;;;;4.20;2.93;;;10.10;99.90;;;;;;5009050;28;20628;-70
2021/10/18 06:48:27;;;;;;;4.83;3.77;;;10.10;99.90;;;;;;5009096;28;20312;-70
2021/10/18 06:50:53;;;;;;;2.83;2.63;;;10.10;99.90;;;;;;5008761;28;20240;-70
2021/10/18 06:53:29;;;;;;;5.67;2.90;;;10.10;99.90;;;;;;5009125;28;20236;-70
2021/10/18 06:55:58;;;;;;;5.47;3.20;;;10.10;99.90;;;;;;5008707;28;20203;-70
2021/10/18 06:58:25;;;;;;;3.13;2.53;;;10.10;99.90;;;;;;5008819;28;20213;-70
2021/10/18 07:00:52;;;;;;;2.60;2.40;;;10.10;99.90;;;;;;5008196;28;20269;-70
2021/10/18 07:03:19;;;;;;;5.03;2.80;;;10.10;99.90;;;;;;5008563;28;20781;-70
2021/10/18 07:05:46;;;;;;;2.70;2.50;;;10.10;99.90;;;;;;5008803;28;20224;-70
2021/10/18 07:08:13;;;;;;;3.10;2.20;;;10.20;99.90;;;;;;5008822;28;20261;-70
2021/10/18 07:10:40;;;;;;;6.00;2.60;;;10.20;99.90;;;;;;5008553;28;20267;-70
2021/10/18 07:13:09;;;;;;;2.90;2.67;;;10.30;99.90;;;;;;5008589;28;20210;-70
2021/10/18 07:15:36;;;;;;;4.60;2.53;;;10.30;99.90;;;;;;5008266;28;20583;-70
2021/10/18 07:18:02;;;;;;;4.23;2.30;;;10.30;99.90;;;;;;5008126;28;20210;-70
2021/10/18 07:20:29;;;;;;;5.80;2.23;;;10.40;99.90;;;;;;5008436;28;20209;-70
2021/10/18 07:22:59;;;;;;;3.50;2.27;;;10.40;99.90;;;;;;5008377;28;20646;-70
2021/10/18 07:25:26;;;;;;;4.90;2.33;;;10.50;99.90;;;;;;5008438;28;20206;-70
2021/10/18 07:27:52;;;;;;;3.30;2.00;;;10.50;99.90;;;;;;5008517;28;20209;-70
2021/10/18 07:30:20;;;;;;;2.93;2.50;;;10.60;99.90;;;;;;5008441;28;20233;-70
2021/10/18 07:32:47;;;;;;;3.23;2.10;;;10.60;99.90;;;;;;5008355;28;20259;-70
2021/10/18 07:35:16;;;;;;;2.43;2.00;;;10.70;99.90;;;;;;5008518;28;20259;-70
2021/10/18 07:37:51;;;;;;;2.87;2.10;;;10.70;99.90;;;;;;5008325;28;20276;-70
2021/10/18 07:40:19;;;;;;;2.73;2.47;;;10.70;99.90;;;;;;5008733;28;20207;-70
2021/10/18 07:42:46;;;;;;;2.67;2.17;;;10.80;99.90;;;;;;5008344;28;20210;-70
2021/10/18 07:45:13;;;;;;;2.70;2.47;;;10.80;99.90;;;;;;5008322;28;20205;-70
2021/10/18 07:47:41;;;;;;;3.40;2.10;;;10.80;99.90;;;;;;5007828;28;20680;-70
2021/10/18 07:50:10;;;;;;;2.90;2.40;;;10.90;99.90;;;;;;5008403;28;20319;-70
2021/10/18 07:52:37;;;;;;;3.93;2.20;;;10.90;99.90;;;;;;5007809;28;20205;-70
2021/10/18 07:55:05;;;;;;;2.33;2.07;;;10.90;99.90;;;;;;5008226;28;20236;-70
2021/10/18 07:57:33;;;;;;;3.63;2.13;;;11.00;99.90;;;;;;5008126;28;20267;-71
2021/10/18 08:00:00;;;;;;;3.20;2.20;;;11.00;99.90;;;;;;5007862;28;20233;-70
2021/10/18 08:02:27;;;;;;;2.70;2.47;;;11.10;99.90;;;;;;5008128;28;20232;-70
2021/10/18 08:04:53;;;;;;;3.23;2.57;;;11.10;99.90;;;;;;5011405;28;20228;-70
2021/10/18 08:07:25;;;;;;;2.73;2.30;;;11.10;99.90;;;;;;5011787;28;21069;-70
2021/10/18 08:09:52;;;;;;;2.70;2.50;;;11.20;99.90;;;;;;5011479;28;20616;-71
2021/10/18 08:12:19;;;;;;;4.53;2.37;;;11.20;99.90;;;;;;5011858;28;20205;-70
2021/10/18 08:14:46;;;;;;;2.53;2.10;;;11.30;99.90;;;;;;5011824;28;20214;-70
2021/10/18 08:17:13;;;;;;;3.27;2.30;;;11.30;99.90;;;;;;5011971;28;20205;-70
2021/10/18 08:19:40;;;;;;;3.50;2.53;;;11.30;99.90;;;;;;5011580;28;20735;-70
2021/10/18 08:22:06;;;;;;;2.80;2.23;;;11.40;99.90;;;;;;5011862;28;20266;-70
2021/10/18 08:24:34;;;;;;;4.70;2.70;;;11.40;99.90;;;;;;5011841;28;20209;-70
2021/10/18 08:27:00;;;;;;;3.40;3.10;;;11.50;99.90;;;;;;5011464;28;20205;-70
2021/10/18 08:29:27;;;;;;;4.17;3.30;;;11.50;99.90;;;;;;5011823;28;20252;-70
2021/10/18 08:31:55;;;;;;;6.27;3.10;;;11.60;99.90;;;;;;5011608;28;20267;-70
2021/10/18 08:34:21;;;;;;;3.53;3.00;;;11.60;99.90;;;;;;5011613;28;20205;-70
2021/10/18 08:36:48;;;;;;;7.27;4.53;;;11.60;99.90;;;;;;5011391;28;20252;-70
2021/10/18 08:42:02;;;;;;;4.13;3.73;;;11.70;99.90;;;;;;5011081;28;20275;-70
2021/10/18 08:44:28;;;;;;;5.23;4.07;;;11.80;99.90;;;;;;5011351;28;20205;-70
2021/10/18 08:46:59;;;;;;;8.53;5.00;;;11.80;99.90;;;;;;5011349;28;20499;-70
2021/10/18 08:49:26;;;;;;;4.30;3.03;;;11.90;99.90;;;;;;5011413;28;20226;-70
2021/10/18 08:51:53;;;;;;;4.07;2.70;;;12.00;99.90;;;;;;5011162;28;20655;-70
2021/10/18 08:54:20;;;;;;;4.53;2.43;;;12.10;99.90;;;;;;5011069;28;20664;-70
2021/10/18 08:56:46;;;;;;;2.47;2.27;;;12.20;99.90;;;;;;5011333;28;20252;-70
2021/10/18 08:59:13;;;;;;;3.77;2.63;;;12.20;99.90;;;;;;5011112;28;20260;-71
2021/10/18 09:01:45;;;;;;;3.60;2.57;;;12.30;99.90;;;;;;5011284;28;20194;-70
2021/10/18 09:04:24;;;;;;;4.70;2.53;;;12.40;99.90;;;;;;5010936;28;20651;-70
2021/10/18 09:06:51;;;;;;;3.00;2.50;;;12.50;99.90;;;;;;5010627;28;20672;-70
2021/10/18 09:09:23;;;;;;;2.07;1.90;;;12.50;99.90;;;;;;5010995;28;20708;-70
2021/10/18 09:11:49;;;;;;;2.67;2.20;;;12.60;99.90;;;;;;5010609;28;20699;-70
2021/10/18 09:14:16;;;;;;;2.77;1.83;;;12.60;99.90;;;;;;5010331;28;20264;-70
2021/10/18 09:16:44;;;;;;;3.90;2.00;;;12.70;99.90;;;;;;5009975;28;20616;-70
2021/10/18 09:19:15;;;;;;;2.70;2.00;;;12.80;99.90;;;;;;5010827;28;20295;-70
2021/10/18 09:21:44;;;;;;;3.07;1.80;;;12.80;99.90;;;;;;5010502;28;20376;-70
2021/10/18 09:24:13;;;;;;;3.50;2.00;;;12.90;99.90;;;;;;5010676;28;20201;-70
2021/10/18 09:26:41;;;;;;;2.80;2.10;;;13.00;99.90;;;;;;5010369;28;20267;-71
2021/10/18 09:29:11;;;;;;;3.63;2.20;;;13.00;99.90;;;;;;5010591;28;20287;-70
2021/10/18 09:31:40;;;;;;;2.43;2.10;;;13.00;99.90;;;;;;5010069;28;20228;-70
2021/10/18 09:34:10;;;;;;;2.57;2.37;;;13.10;99.90;;;;;;5010486;28;20237;-70
2021/10/18 09:36:40;;;;;;;3.93;2.00;;;13.10;99.90;;;;;;5010184;28;20251;-71
2021/10/18 09:39:11;;;;;;;4.67;2.17;;;13.10;99.90;;;;;;5010251;28;20276;-70
2021/10/18 09:41:42;;;;;;;2.30;2.00;;;13.20;99.90;;;;;;5010040;28;20621;-70
2021/10/18 09:44:20;;;;;;;2.57;2.23;;;13.30;99.90;;;;;;5010349;28;20213;-71
2021/10/18 09:47:05;;;;;;;3.43;2.50;;;13.40;99.90;;;;;;5010019;28;20228;-70
2021/10/18 10:51:26;;;;;;;2.80;2.30;;;13.90;99.90;;;;;;5008806;28;20231;-70
2021/10/18 10:53:55;;;;;;;3.00;1.80;;;13.90;99.90;;;;;;5009111;28;20197;-70
2021/10/18 10:56:29;;;;;;;2.83;2.07;;;14.00;99.90;;;;;;5008602;28;20236;-70
2021/10/18 10:59:07;;;;;;;3.67;2.03;;;14.00;99.90;;;;;;5008572;28;20235;-70
2021/10/18 11:01:46;;;;;;;3.93;1.73;;;14.10;99.90;;;;;;5008501;28;20640;-70
2021/10/18 11:04:42;;;;;;;2.50;1.97;;;14.20;99.90;;;;;;5008850;28;20255;-70
2021/10/18 11:07:11;;;;;;;3.20;2.90;;;14.20;99.90;;;;;;5008916;28;20201;-70
2021/10/18 11:09:41;;;;;;;1.90;1.80;;;14.20;99.90;;;;;;5008650;28;20233;-70
2021/10/18 11:12:10;;;;;;;1.93;1.77;;;14.30;99.90;;;;;;5008903;28;20679;-70
2021/10/18 11:14:38;;;;;;;2.67;2.03;;;14.30;99.90;;;;;;5008678;28;20208;-70
2021/10/18 11:17:05;;;;;;;2.40;1.93;;;14.30;99.90;;;;;;5008676;28;20263;-70
2021/10/18 11:19:31;;;;;;;2.83;2.03;;;14.30;99.90;;;;;;5008542;28;20292;-70
2021/10/18 11:22:00;;;;;;;3.33;2.80;;;14.30;99.90;;;;;;5008486;28;20287;-70
2021/10/18 11:24:40;;;;;;;2.70;2.13;;;14.30;99.90;;;;;;5008838;28;20201;-70
2021/10/18 11:27:07;;;;;;;3.33;2.07;;;14.30;99.90;;;;;;5008524;28;20747;-70
2021/10/18 11:29:35;;;;;;;1.90;1.80;;;14.20;99.90;;;;;;5008435;28;20229;-70
2021/10/18 11:32:10;;;;;;;2.17;1.97;;;14.20;99.90;;;;;;5008625;28;20256;-70
2021/10/18 11:34:38;;;;;;;3.83;2.10;;;14.20;99.90;;;;;;5008513;28;20209;-70
2021/10/18 11:37:05;;;;;;;2.93;1.83;;;14.20;99.90;;;;;;5008447;28;20262;-70
2021/10/18 11:39:33;;;;;;;3.23;1.73;;;14.20;99.90;;;;;;5007419;28;20213;-70
2021/10/18 11:42:08;;;;;;;4.20;1.73;;;14.20;99.90;;;;;;5008157;28;20209;-70
2021/10/18 11:44:40;;;;;;;2.97;1.80;;;14.30;99.90;;;;;;5008064;28;20212;-70
2021/10/18 11:47:20;;;;;;;2.00;1.47;;;14.30;99.90;;;;;;5007925;28;20772;-70
2021/10/18 11:50:16;;;;;;;3.33;1.73;;;14.40;99.90;;;;;;5008149;28;20280;-70
2021/10/18 11:52:46;;;;;;;1.67;1.57;;;14.30;99.90;;;;;;5008206;28;20201;-70
2021/10/18 11:55:15;;;;;;;1.90;1.80;;;14.40;99.90;;;;;;5008263;28;20237;-70
2021/10/18 11:57:45;;;;;;;3.20;1.57;;;14.40;99.90;;;;;;5008073;28;20214;-70
2021/10/18 12:00:14;;;;;;;2.77;1.90;;;14.50;99.90;;;;;;5007995;28;20250;-70
2021/10/18 12:02:45;;;;;;;3.43;1.60;;;14.60;99.90;;;;;;5008133;28;20221;-70
2021/10/18 12:05:12;;;;;;;2.43;1.40;;;14.60;99.90;;;;;;5008025;28;20747;-70
2021/10/18 12:07:40;;;;;;;2.77;1.70;;;14.70;99.90;;;;;;5008503;28;20209;-70
2021/10/18 12:10:19;;;;;;;2.40;1.70;;;14.70;99.90;;;;;;5007956;28;20233;-70
2021/10/18 12:13:16;;;;;;;4.40;2.10;;;14.80;99.90;;;;;;5008057;28;20197;-70
2021/10/18 12:15:51;;;;;;;2.23;2.03;;;14.80;99.90;;;;;;5008271;28;20245;-70
2021/10/18 12:18:21;;;;;;;1.50;1.40;;;14.90;99.90;;;;;;5008322;28;20197;-70
2021/10/18 12:20:50;;;;;;;3.73;1.57;;;15.00;99.90;;;;;;5008077;28;20292;-70
2021/10/18 12:23:26;;;;;;;1.80;1.70;;;15.10;99.90;;;;;;5008171;28;20259;-70
2021/10/18 12:25:59;;;;;;;1.73;1.60;;;15.30;99.90;;;;;;5007644;28;20197;-70
2021/10/18 12:28:44;;;;;;;1.80;1.50;;;15.40;99.90;;;;;;5008208;28;20217;-70
2021/10/18 12:31:29;;;;;;;2.23;1.80;;;15.40;99.90;;;;;;5007096;28;20718;-70
2021/10/18 12:34:03;;;;;;;2.73;1.83;;;15.50;99.90;;;;;;5007923;28;20694;-70
2021/10/18 12:36:30;;;;;;;2.47;1.50;;;15.60;99.90;;;;;;5007623;28;20229;-69
2021/10/18 12:39:00;;;;;;;1.80;1.70;;;15.70;99.90;;;;;;5007681;28;20221;-70
2021/10/18 12:41:26;;;;;;;2.43;1.67;;;15.80;99.90;;;;;;5007823;28;20393;-69
2021/10/18 12:43:53;;;;;;;3.67;1.90;;;15.80;99.90;;;;;;5007740;28;20295;-70
2021/10/18 12:46:22;;;;;;;2.80;1.80;;;15.90;99.90;;;;;;5007818;28;20217;-69
2021/10/18 12:49:02;;;;;;;2.57;1.60;;;15.90;99.90;;;;;;5007715;28;20267;-69
2021/10/18 12:51:41;;;;;;;2.07;1.53;;;15.90;99.90;;;;;;5011336;28;20685;-70
2021/10/18 12:54:39;;;;;;;2.53;1.93;;;15.90;99.90;;;;;;5011174;28;20220;-69
2021/10/18 12:57:08;;;;;;;2.87;1.80;;;15.90;99.90;;;;;;4998977;28;20209;-69
2021/10/18 12:59:36;;;;;;;1.53;1.43;;;15.90;99.90;;;;;;5011013;28;20320;-70
2021/10/18 13:02:31;;;;;;;1.50;1.40;;;16.00;99.90;;;;;;5011057;28;20257;-69
2021/10/18 13:05:13;;;;;;;2.50;1.53;;;16.00;99.90;;;;;;4975609;28;20205;-69
2021/10/18 13:07:42;;;;;;;3.13;1.60;;;16.00;99.90;;;;;;5011077;28;20193;-69
2021/10/18 13:10:11;;;;;;;2.90;1.93;;;16.00;99.90;;;;;;5010669;28;20935;-69
2021/10/18 13:12:39;;;;;;;2.57;2.00;;;16.10;99.90;;;;;;5010806;28;20210;-69
2021/10/18 13:15:07;;;;;;;1.70;1.43;;;16.10;99.90;;;;;;5010720;28;20209;-69
2021/10/18 13:17:34;;;;;;;3.60;1.90;;;16.20;99.90;;;;;;5010992;28;20213;-70
2021/10/18 13:20:01;;;;;;;3.20;2.30;;;16.10;99.90;;;;;;5010453;28;20260;-69
2021/10/18 13:22:28;;;;;;;2.47;1.47;;;16.20;99.90;;;;;;5010919;28;20225;-70
2021/10/18 13:24:55;;;;;;;2.20;1.60;;;16.20;99.90;;;;;;5010174;28;20206;-70
2021/10/18 13:27:26;;;;;;;1.70;1.60;;;16.30;99.90;;;;;;5010379;28;20668;-69
2021/10/18 13:29:53;;;;;;;6.47;5.67;;;16.30;99.90;;;;;;5010384;28;21068;-70
2021/10/18 13:32:19;;;;;;;3.00;2.30;;;16.40;99.90;;;;;;5010496;28;20241;-70
2021/10/18 13:34:46;;;;;;;3.83;2.27;;;16.50;99.90;;;;;;5010294;28;20213;-70
2021/10/18 13:37:13;;;;;;;3.13;2.13;;;16.60;99.90;;;;;;5010398;28;20237;-70
2021/10/18 13:39:43;;;;;;;2.30;1.50;;;16.60;99.90;;;;;;5010163;28;20233;-70
2021/10/18 13:42:10;;;;;;;3.07;1.60;;;16.50;99.90;;;;;;5009029;28;20213;-70
2021/10/18 13:44:39;;;;;;;1.80;1.70;;;16.30;99.90;;;;;;5009299;28;20710;-70
2021/10/18 13:47:05;;;;;;;3.00;1.40;;;16.20;99.90;;;;;;5009595;28;20267;-70
2021/10/18 13:49:32;;;;;;;2.23;1.30;;;16.20;99.90;;;;;;5009953;28;20743;-71
2021/10/18 13:51:58;;;;;;;1.70;1.60;;;16.20;99.90;;;;;;5010180;28;20260;-71
2021/10/18 13:54:25;;;;;;;1.93;1.47;;;16.20;99.90;;;;;;5010129;28;20292;-69
2021/10/18 13:56:53;;;;;;;1.53;1.43;;;16.20;99.90;;;;;;5009731;28;20283;-70
2021/10/18 13:59:20;;;;;;;2.10;1.43;;;16.20;99.90;;;;;;5009662;28;20229;-71